KOLE/OLE METAR and TAF weather

Enter ICAO airport designator
Station Type Date Time Source
KOLE METAR 2019/12/13 03:35 UTC NOAA

KOLE 130335Z AUTO 18008G14KT 10SM CLR M04/M11 A3030 RMK AO2


Station Type Date Time Source
KOLE Decoded METAR 2019/12/13 03:35 UTC NOAA

Olean Municipal, NY, United States (KOLE) 42-14N 078-22W
Dec 12, 2019 - 10:35 PM EST / 2019.12.13 0335 UTC
Wind: from the S (180 degrees) at 9 MPH (8 KT) gusting to 16 MPH (14 KT):0
Visibility: 10 mile(s):0
Sky conditions: clear
Temperature: 24 F (-4 C)
Windchill: 14 F (-10 C):1
Dew Point: 12 F (-11 C)
Relative Humidity: 58%
Pressure (altimeter): 30.3 in. Hg (1026 hPa)
ob: KOLE 130335Z AUTO 18008G14KT 10SM CLR M04/M11 A3030 RMK AO2
cycle: 3

Station Type Date Time Source
KOLE TAF UTC NOAA

Error!

Example: see airport list